默认 日期 大小 文件数 浏览量 最新下载 xml
tuning磁力链接相关资源由用户搜索指令自动获取,结果来源于网络,本站不存储任何资料,亦不承担任何责任,请于24小时内删除,搜索到578个磁力,用时0ms。
    {"ABT AS4 - 2008": {"ABT-AS4-2008-1920x1080-001.jpg": 621380, "ABT-AS4-2008-1920x1080-002.jpg": 520516, "ABT-AS4-2008-1920x1080-003.jpg": 498755, "ABT-AS4-2008-1920x1080-004.jpg": 496420, "ABT-AS4-2008-1920x1080-005.jpg": 469379, "ABT-AS4-2008-1920x1080- ...
创建时间: 2019-10-11 19:39:50 大小:110.03 MB 文件数量:199 热度:6 最近下载:2025-02-05 09:55:02
    {"TutsGalaxy.com.txt": 53, "Download more courses.url": 123, "Downloaded from TutsGalaxy.com.txt": 73, "Downloaded from Demonoid - www.dnoid.to.txt": 56, "Tuning Apache Spark Powerful Big Data Processing Recipes.zip": 5376670599}
创建时间: 2019-10-18 04:03:18 大小:5.01 GB 文件数量:5 热度:9 最近下载:2025-03-13 00:08:01
    {"BOOST LE MAG.DU TUNING n 187.pdf": 66126343, "BOOST LE MAG.DU TUNING n 188.pdf": 65686395, "BOOST+LE+MAG.DU+TUNING+n+185.pdf": 73709788, "BOOST+LE+MAG.DU+TUNING+n+186.pdf": 68855192}
创建时间: 2019-10-18 12:29:10 大小:261.67 MB 文件数量:4 热度:10 最近下载:2025-01-21 06:25:02
    {"MAGIX PC Check & Tuning 2010 v5.0+Serial [ kk ].rar": 77808969}
创建时间: 2019-10-18 14:25:31 大小:74.2 MB 文件数量:1 热度:10 最近下载:2025-04-22 15:04:01
    ... – Pure Reality - Best Of Tuning Vol.2 CD5.flac": 49098176 ... Wanted (Devotion) - Best Of Tuning Vol.2 CD5.flac": 28585513 ... Marcella Woods – Beautiful - Best Of Tuning Vol.2 CD5.flac": 28125284 ... Synaesthesia (Fly Away) - Best Of Tuning Vol.2 CD5.flac": 50666646}
创建时间: 2019-10-20 10:43:41 大小:561.33 MB 文件数量:19 热度:5 最近下载:2024-12-28 20:36:04
    {"Best Of Tuning Vol 2.m3u": 1707, "10 - ...
创建时间: 2019-10-21 09:52:19 大小:546.48 MB 文件数量:19 热度:4 最近下载:2022-11-15 20:36:55
    {"01.jpg": 949217, "02.png": 9591, "03.png": 292933, "04.png": 312740, "05.png": 251193, "06.png": 259998, "07.png": 337666, "08.png": 225936, "09.png": 281850, "10.png": 442275, "11.png": 226541, "12.png": 305320, "13.png": 286748, "14.png": 237609, "15. ...
创建时间: 2019-10-23 17:57:48 大小:9.82 MB 文件数量:39 热度:8 最近下载:2025-08-01 16:38:06
    ... , "Slide Guitar Essentials Open E Tuning": {"08 Vibrato": {"ReadMe.txt": 538 ... }, "03 Guitar Set-Up": {"007 Tuning.mp4": 97557038, "004 Guitar Types ...
创建时间: 2019-10-23 21:02:18 大小:2.94 GB 文件数量:100 热度:7 最近下载:2025-07-25 01:57:02
    ... .rar": 1048576000, "ALI213-PES.2019.Tuning.Patch.v1.05.01.part2 ... .rar": 1048576000, "ALI213-PES.2019.Tuning.Patch.v1.05.01.part3 ... .rar": 1048576000, "ALI213-PES.2019.Tuning.Patch.v1.05.01.part4 ... .rar": 1048576000, "ALI213-PES.2019.Tuning.Patch.v1.05.01.part5 ...
创建时间: 2019-10-26 00:26:49 大小:6.13 GB 文件数量:7 热度:7 最近下载:2025-08-01 18:47:14
    ... The Art of Vocal Tuning": {"11. Spot Tuning.mp4": 25995839, "17 ... , "8. Using Automation with Tuning Parameters.mp4": 10616669, "7. ... mp4": 16475230, "6. Tuning Reference, Transposition and Tracking.mp4 ... , "4. Retune Speed, Tuning Strength and Note Transitions.mp4 ...
创建时间: 2019-11-08 16:28:25 大小:312.04 MB 文件数量:27 热度:5 最近下载:2025-01-22 07:48:02
    {"Tuning Car Studio.exe": 37002752, "Installation instructions.txt": 85}
创建时间: 2019-11-18 13:39:06 大小:35.29 MB 文件数量:2 热度:5 最近下载:2025-02-17 00:32:01
    {"Apr13": {"0.png": 2077368, "1.png": 1651211, "2.png": 413844, "3.png": 378731, "4.png": 1289232, "5.png": 1870451, "6.png": 2240450, "7.png": 1602860, "8.png": 1150142, "9.png": 2354848, "10.png": 689010, "11.png": 800118, "12.png": 779039, "13.png": ...
创建时间: 2019-11-20 06:45:40 大小:1.19 GB 文件数量:1406 热度:5 最近下载:2024-11-04 15:19:01
    ... 100944812, "13. SQL Tuning Principles and Strategies.vtt": ... Keyboard Input Settings (SQL Tuning Masterclass).pdf.pdf": 897965 ... }, "1. SQL & Perfomance Tuning Course Introduction": {"ReadMe.txt": ... "1. SQL & Performance Tuning Course Overview.mp4": 65129127, " ...
创建时间: 2019-11-29 23:26:05 大小:6.16 GB 文件数量:229 热度:10 最近下载:2025-04-22 16:57:03
    {"cd 1": {"RPM.ico": 12862, "setup_rpm.exe": 3287344, "setup_rpm-1.bin": 696712448}, "cd 2": {"DirectX9": {"BDA.cab": 703080, "dxnt.cab": 13265040, "BDANT.cab": 1156363, "BDAXP.cab": 976020, "DSETUP.dll": 62976, "DirectX.cab": 15493481, "dxsetup.exe": ...
创建时间: 2019-12-03 17:49:17 大小:978.14 MB 文件数量:13 热度:4 最近下载:2023-12-26 10:54:01
    {"BEST OF TUNNING - VOL. 2.m3u": 2453, "07 - MONDOTEK - Alive - Various Artists.flac": 28313420, "04 - FUNKERMAN - Speed Up - Various Artists.flac": 28680261, "16 - NICK CORLINE - Orfeu - Various Artists.flac": 23792710, "11 - GET FAR - Shining Star - ...
创建时间: 2019-12-04 06:50:41 大小:580.43 MB 文件数量:19 热度:4 最近下载:2023-12-26 12:37:02
    {"Track No01.mp3": 16906576, "Track No02.mp3": 15268176, "Track No03.mp3": 15810478, "Track No04.mp3": 15268176, "Track No05.mp3": 9819033, "Track No06.mp3": 11999735, "Track No07.mp3": 11451163, "Track No08.mp3": 7089759, "Track No09.mp3": 12815800, " ...
创建时间: 2019-12-08 23:06:09 大小:144.69 MB 文件数量:12 热度:4 最近下载:2023-12-28 00:04:06
    {"The Anxiety Toolkit - Strategies for Fine-Tuning.epub": 499277}
创建时间: 2019-12-20 05:15:55 大小:487.58 KB 文件数量:1 热度:9 最近下载:2025-01-08 00:54:02
    {"Best Of Tuning Vol 2.m3u": 1797, "09 - ...
创建时间: 2019-12-21 13:03:41 大小:570.72 MB 文件数量:19 热度:5 最近下载:2023-12-29 08:27:04
    {"XP Tuning - 7in1 - (AIO).rar": 113520860}
创建时间: 2019-12-22 03:16:52 大小:108.26 MB 文件数量:1 热度:9 最近下载:2025-05-19 08:17:01
    {"r-ostwo.nfo": 7196, "r-ostwo.pdf": 11088209}
创建时间: 2019-12-23 21:15:45 大小:10.58 MB 文件数量:2 热度:5 最近下载:2025-02-13 11:48:03